FLI weather

Holt Airport
Flateyri, Westfjords, Iceland

Public forecast

Using degrees Celsius for public forecast. Weather courtesy of forecast.io.

Closest aviation weather report (METAR) to Holt Airport

Closest report is Ísafjörður Airport, 7.9 nm (14.7 km) ENE. Retrieved 2019/12/09 08:00 UTC (4 minutes ago):

BIIS 090800Z 36010G20KT 340V060 9999 OVC025 00/M05 Q1001

Closest aviation forecast (TAF) to Holt Airport

Closest forecast is Reykjavik Airport, 119.3 nm (221.0 km) SSE. Retrieved 2019/12/09 09:45 UTC (0 seconds ago):

TAF BIRK 090744Z 0909/1009 09018KT 9000 -RASN BKN015 OVC025 TX03/0915Z TNM01/0909Z TEMPO 0909/0914 11020G33KT 2000 SNRA BKN005 OVC010 BECMG 0915/0917 14010KT 9999 -RA BKN025 BECMG 1003/1005 VRB03KT NSW SCT020 BKN035 BECMG 1007/1009 35010KT